sensor_id;sensor_type;location;lat;lon;timestamp;P1;durP1;ratioP1;P2;durP2;ratioP2
17482;SDS011;8858;52.308;20.994;2023-02-28T00:01:56;54.83;;;30.63;;
17482;SDS011;8858;52.308;20.994;2023-02-28T00:04:25;56.37;;;30.83;;
17482;SDS011;8858;52.308;20.994;2023-02-28T00:06:55;59.67;;;31.63;;
17482;SDS011;8858;52.308;20.994;2023-02-28T00:09:23;62.30;;;32.50;;
17482;SDS011;8858;52.308;20.994;2023-02-28T00:11:51;59.50;;;32.17;;
17482;SDS011;8858;52.308;20.994;2023-02-28T00:14:19;58.63;;;32.50;;
17482;SDS011;8858;52.308;20.994;2023-02-28T00:16:49;53.77;;;32.17;;
17482;SDS011;8858;52.308;20.994;2023-02-28T00:19:18;60.10;;;33.17;;
17482;SDS011;8858;52.308;20.994;2023-02-28T00:21:46;61.80;;;31.50;;
17482;SDS011;8858;52.308;20.994;2023-02-28T00:24:16;58.40;;;32.30;;
17482;SDS011;8858;52.308;20.994;2023-02-28T00:26:44;56.43;;;32.63;;
17482;SDS011;8858;52.308;20.994;2023-02-28T00:29:13;58.17;;;31.93;;
17482;SDS011;8858;52.308;20.994;2023-02-28T00:31:43;57.83;;;32.17;;
17482;SDS011;8858;52.308;20.994;2023-02-28T00:34:12;54.30;;;31.63;;
17482;SDS011;8858;52.308;20.994;2023-02-28T00:36:40;61.70;;;33.87;;
17482;SDS011;8858;52.308;20.994;2023-02-28T00:39:12;60.83;;;32.67;;
17482;SDS011;8858;52.308;20.994;2023-02-28T00:41:42;60.27;;;32.60;;
17482;SDS011;8858;52.308;20.994;2023-02-28T00:44:12;61.13;;;32.80;;
17482;SDS011;8858;52.308;20.994;2023-02-28T00:46:41;66.27;;;32.50;;
17482;SDS011;8858;52.308;20.994;2023-02-28T00:49:10;59.13;;;33.70;;
17482;SDS011;8858;52.308;20.994;2023-02-28T00:51:38;57.67;;;32.67;;
17482;SDS011;8858;52.308;20.994;2023-02-28T00:54:07;61.57;;;32.90;;
17482;SDS011;8858;52.308;20.994;2023-02-28T00:56:36;60.67;;;33.67;;
17482;SDS011;8858;52.308;20.994;2023-02-28T00:59:06;60.00;;;33.10;;
17482;SDS011;8858;52.308;20.994;2023-02-28T01:01:35;65.23;;;33.47;;
17482;SDS011;8858;52.308;20.994;2023-02-28T01:04:05;57.03;;;31.80;;
17482;SDS011;8858;52.308;20.994;2023-02-28T01:06:34;59.77;;;32.00;;
17482;SDS011;8858;52.308;20.994;2023-02-28T01:09:03;59.67;;;31.73;;
17482;SDS011;8858;52.308;20.994;2023-02-28T01:11:34;65.10;;;33.80;;
17482;SDS011;8858;52.308;20.994;2023-02-28T01:14:03;62.67;;;32.40;;
17482;SDS011;8858;52.308;20.994;2023-02-28T01:16:33;62.07;;;32.40;;
17482;SDS011;8858;52.308;20.994;2023-02-28T01:19:02;64.67;;;34.10;;
17482;SDS011;8858;52.308;20.994;2023-02-28T01:21:31;56.83;;;32.57;;
17482;SDS011;8858;52.308;20.994;2023-02-28T01:24:03;56.97;;;32.83;;
17482;SDS011;8858;52.308;20.994;2023-02-28T01:26:34;66.07;;;32.67;;
17482;SDS011;8858;52.308;20.994;2023-02-28T01:29:07;59.40;;;32.83;;
17482;SDS011;8858;52.308;20.994;2023-02-28T01:31:37;60.27;;;31.70;;
17482;SDS011;8858;52.308;20.994;2023-02-28T01:34:07;60.60;;;31.73;;
17482;SDS011;8858;52.308;20.994;2023-02-28T01:36:38;57.93;;;32.00;;
17482;SDS011;8858;52.308;20.994;2023-02-28T01:39:06;58.23;;;31.00;;
17482;SDS011;8858;52.308;20.994;2023-02-28T01:41:35;54.77;;;29.90;;
17482;SDS011;8858;52.308;20.994;2023-02-28T01:44:05;58.43;;;30.47;;
17482;SDS011;8858;52.308;20.994;2023-02-28T01:46:37;59.93;;;31.60;;
17482;SDS011;8858;52.308;20.994;2023-02-28T01:49:08;71.77;;;35.30;;
17482;SDS011;8858;52.308;20.994;2023-02-28T01:51:39;104.60;;;42.93;;
17482;SDS011;8858;52.308;20.994;2023-02-28T01:54:15;99.07;;;43.53;;
17482;SDS011;8858;52.308;20.994;2023-02-28T01:56:48;73.97;;;36.60;;
17482;SDS011;8858;52.308;20.994;2023-02-28T01:59:22;71.17;;;36.57;;
17482;SDS011;8858;52.308;20.994;2023-02-28T02:01:56;72.93;;;36.53;;
17482;SDS011;8858;52.308;20.994;2023-02-28T02:04:25;68.40;;;34.97;;
17482;SDS011;8858;52.308;20.994;2023-02-28T02:06:59;64.37;;;34.30;;
17482;SDS011;8858;52.308;20.994;2023-02-28T02:09:28;63.63;;;32.87;;
17482;SDS011;8858;52.308;20.994;2023-02-28T02:11:57;67.53;;;35.23;;
17482;SDS011;8858;52.308;20.994;2023-02-28T02:14:44;63.97;;;33.60;;
17482;SDS011;8858;52.308;20.994;2023-02-28T02:17:28;66.60;;;33.70;;
17482;SDS011;8858;52.308;20.994;2023-02-28T02:23:26;69.87;;;36.77;;
17482;SDS011;8858;52.308;20.994;2023-02-28T02:26:07;66.53;;;33.13;;
17482;SDS011;8858;52.308;20.994;2023-02-28T02:28:55;63.63;;;34.17;;
17482;SDS011;8858;52.308;20.994;2023-02-28T02:34:39;73.37;;;34.63;;
17482;SDS011;8858;52.308;20.994;2023-02-28T02:37:20;65.63;;;33.93;;
17482;SDS011;8858;52.308;20.994;2023-02-28T02:40:00;68.57;;;34.17;;
17482;SDS011;8858;52.308;20.994;2023-02-28T02:42:39;67.03;;;32.87;;
17482;SDS011;8858;52.308;20.994;2023-02-28T02:45:14;64.20;;;33.07;;
17482;SDS011;8858;52.308;20.994;2023-02-28T02:47:46;64.60;;;32.57;;
17482;SDS011;8858;52.308;20.994;2023-02-28T02:50:19;60.10;;;33.70;;
17482;SDS011;8858;52.308;20.994;2023-02-28T02:52:57;61.53;;;34.30;;
17482;SDS011;8858;52.308;20.994;2023-02-28T02:55:30;66.67;;;32.83;;
17482;SDS011;8858;52.308;20.994;2023-02-28T02:58:03;58.93;;;32.03;;
17482;SDS011;8858;52.308;20.994;2023-02-28T03:00:37;57.87;;;33.57;;
17482;SDS011;8858;52.308;20.994;2023-02-28T03:03:11;58.67;;;33.20;;
17482;SDS011;8858;52.308;20.994;2023-02-28T03:05:44;62.37;;;34.33;;
17482;SDS011;8858;52.308;20.994;2023-02-28T03:08:39;64.20;;;34.33;;
17482;SDS011;8858;52.308;20.994;2023-02-28T03:11:11;63.10;;;32.13;;
17482;SDS011;8858;52.308;20.994;2023-02-28T03:13:45;57.97;;;32.77;;
17482;SDS011;8858;52.308;20.994;2023-02-28T03:16:34;62.07;;;32.57;;
17482;SDS011;8858;52.308;20.994;2023-02-28T03:19:19;57.97;;;32.57;;
17482;SDS011;8858;52.308;20.994;2023-02-28T03:22:04;61.07;;;34.50;;
17482;SDS011;8858;52.308;20.994;2023-02-28T03:24:42;59.17;;;33.63;;
17482;SDS011;8858;52.308;20.994;2023-02-28T03:27:21;54.70;;;32.33;;
17482;SDS011;8858;52.308;20.994;2023-02-28T03:29:55;61.60;;;33.60;;
17482;SDS011;8858;52.308;20.994;2023-02-28T03:32:33;56.33;;;34.13;;
17482;SDS011;8858;52.308;20.994;2023-02-28T03:35:06;60.77;;;33.43;;
17482;SDS011;8858;52.308;20.994;2023-02-28T03:37:40;60.10;;;34.53;;
17482;SDS011;8858;52.308;20.994;2023-02-28T03:40:13;58.37;;;33.53;;
17482;SDS011;8858;52.308;20.994;2023-02-28T03:42:48;55.87;;;32.40;;
17482;SDS011;8858;52.308;20.994;2023-02-28T03:45:21;57.60;;;33.30;;
17482;SDS011;8858;52.308;20.994;2023-02-28T03:47:55;56.30;;;33.07;;
17482;SDS011;8858;52.308;20.994;2023-02-28T03:50:29;56.90;;;32.90;;
17482;SDS011;8858;52.308;20.994;2023-02-28T03:53:06;61.57;;;32.50;;
17482;SDS011;8858;52.308;20.994;2023-02-28T03:55:39;57.37;;;33.10;;
17482;SDS011;8858;52.308;20.994;2023-02-28T03:58:12;54.47;;;33.47;;
17482;SDS011;8858;52.308;20.994;2023-02-28T04:00:50;55.90;;;31.07;;
17482;SDS011;8858;52.308;20.994;2023-02-28T04:03:25;55.50;;;31.80;;
17482;SDS011;8858;52.308;20.994;2023-02-28T04:05:55;62.03;;;33.67;;
17482;SDS011;8858;52.308;20.994;2023-02-28T04:08:25;59.43;;;32.90;;
17482;SDS011;8858;52.308;20.994;2023-02-28T04:10:56;53.20;;;31.77;;
17482;SDS011;8858;52.308;20.994;2023-02-28T04:13:29;55.37;;;32.20;;
17482;SDS011;8858;52.308;20.994;2023-02-28T04:15:58;59.80;;;32.47;;
17482;SDS011;8858;52.308;20.994;2023-02-28T04:18:27;52.53;;;30.80;;
17482;SDS011;8858;52.308;20.994;2023-02-28T04:20:59;55.77;;;31.03;;
17482;SDS011;8858;52.308;20.994;2023-02-28T04:23:30;59.00;;;31.83;;
17482;SDS011;8858;52.308;20.994;2023-02-28T04:26:01;54.13;;;31.73;;
17482;SDS011;8858;52.308;20.994;2023-02-28T04:28:30;51.63;;;31.13;;
17482;SDS011;8858;52.308;20.994;2023-02-28T04:30:58;57.47;;;32.27;;
17482;SDS011;8858;52.308;20.994;2023-02-28T04:33:30;56.40;;;32.30;;
17482;SDS011;8858;52.308;20.994;2023-02-28T04:35:59;52.67;;;31.67;;
17482;SDS011;8858;52.308;20.994;2023-02-28T04:38:33;53.60;;;30.57;;
17482;SDS011;8858;52.308;20.994;2023-02-28T04:41:03;54.97;;;32.27;;
17482;SDS011;8858;52.308;20.994;2023-02-28T04:43:32;55.80;;;32.73;;
17482;SDS011;8858;52.308;20.994;2023-02-28T04:46:02;49.17;;;30.63;;
17482;SDS011;8858;52.308;20.994;2023-02-28T04:48:32;56.37;;;32.00;;
17482;SDS011;8858;52.308;20.994;2023-02-28T04:51:03;54.87;;;31.17;;
17482;SDS011;8858;52.308;20.994;2023-02-28T04:53:35;51.70;;;29.57;;
17482;SDS011;8858;52.308;20.994;2023-02-28T04:56:06;51.47;;;30.67;;
17482;SDS011;8858;52.308;20.994;2023-02-28T04:58:36;57.30;;;31.40;;
17482;SDS011;8858;52.308;20.994;2023-02-28T05:01:05;54.73;;;31.23;;
17482;SDS011;8858;52.308;20.994;2023-02-28T05:03:38;58.13;;;30.53;;
17482;SDS011;8858;52.308;20.994;2023-02-28T05:06:08;52.00;;;31.10;;
17482;SDS011;8858;52.308;20.994;2023-02-28T05:08:41;55.07;;;29.37;;
17482;SDS011;8858;52.308;20.994;2023-02-28T05:11:13;50.33;;;29.33;;
17482;SDS011;8858;52.308;20.994;2023-02-28T05:13:48;53.20;;;29.93;;
17482;SDS011;8858;52.308;20.994;2023-02-28T05:16:17;51.40;;;29.83;;
17482;SDS011;8858;52.308;20.994;2023-02-28T05:18:49;53.27;;;30.23;;
17482;SDS011;8858;52.308;20.994;2023-02-28T05:21:24;57.40;;;30.33;;
17482;SDS011;8858;52.308;20.994;2023-02-28T05:23:59;56.37;;;30.03;;
17482;SDS011;8858;52.308;20.994;2023-02-28T05:26:29;53.70;;;30.40;;
17482;SDS011;8858;52.308;20.994;2023-02-28T05:28:57;55.10;;;31.37;;
17482;SDS011;8858;52.308;20.994;2023-02-28T05:31:26;54.93;;;31.57;;
17482;SDS011;8858;52.308;20.994;2023-02-28T05:33:55;56.77;;;30.33;;
17482;SDS011;8858;52.308;20.994;2023-02-28T05:36:26;57.97;;;30.83;;
17482;SDS011;8858;52.308;20.994;2023-02-28T05:38:54;56.17;;;31.07;;
17482;SDS011;8858;52.308;20.994;2023-02-28T05:41:25;51.00;;;30.57;;
17482;SDS011;8858;52.308;20.994;2023-02-28T05:43:57;53.97;;;30.87;;
17482;SDS011;8858;52.308;20.994;2023-02-28T05:46:26;64.33;;;33.20;;
17482;SDS011;8858;52.308;20.994;2023-02-28T05:48:55;51.93;;;30.03;;
17482;SDS011;8858;52.308;20.994;2023-02-28T05:51:26;56.43;;;30.73;;
17482;SDS011;8858;52.308;20.994;2023-02-28T05:53:58;51.47;;;29.97;;
17482;SDS011;8858;52.308;20.994;2023-02-28T05:56:29;55.70;;;29.63;;
17482;SDS011;8858;52.308;20.994;2023-02-28T05:58:57;53.27;;;29.97;;
17482;SDS011;8858;52.308;20.994;2023-02-28T06:01:31;54.40;;;28.77;;
17482;SDS011;8858;52.308;20.994;2023-02-28T06:04:01;58.63;;;31.33;;
17482;SDS011;8858;52.308;20.994;2023-02-28T06:06:30;56.40;;;30.53;;
17482;SDS011;8858;52.308;20.994;2023-02-28T06:09:02;61.27;;;30.47;;
17482;SDS011;8858;52.308;20.994;2023-02-28T06:11:33;57.77;;;30.27;;
17482;SDS011;8858;52.308;20.994;2023-02-28T06:14:02;61.83;;;31.23;;
17482;SDS011;8858;52.308;20.994;2023-02-28T06:16:31;57.70;;;31.27;;
17482;SDS011;8858;52.308;20.994;2023-02-28T06:19:03;59.40;;;32.13;;
17482;SDS011;8858;52.308;20.994;2023-02-28T06:21:32;60.97;;;32.83;;
17482;SDS011;8858;52.308;20.994;2023-02-28T06:24:01;64.30;;;33.63;;
17482;SDS011;8858;52.308;20.994;2023-02-28T06:26:31;64.23;;;32.87;;
17482;SDS011;8858;52.308;20.994;2023-02-28T06:29:01;61.60;;;32.70;;
17482;SDS011;8858;52.308;20.994;2023-02-28T06:31:30;95.00;;;52.13;;
17482;SDS011;8858;52.308;20.994;2023-02-28T06:33:59;80.87;;;42.37;;
17482;SDS011;8858;52.308;20.994;2023-02-28T06:36:29;68.93;;;34.03;;
17482;SDS011;8858;52.308;20.994;2023-02-28T06:38:57;56.90;;;32.43;;
17482;SDS011;8858;52.308;20.994;2023-02-28T06:41:26;56.03;;;31.37;;
17482;SDS011;8858;52.308;20.994;2023-02-28T06:43:58;60.73;;;32.00;;
17482;SDS011;8858;52.308;20.994;2023-02-28T06:46:26;57.97;;;30.10;;
17482;SDS011;8858;52.308;20.994;2023-02-28T06:48:55;57.57;;;30.60;;
17482;SDS011;8858;52.308;20.994;2023-02-28T06:51:25;53.53;;;27.20;;
17482;SDS011;8858;52.308;20.994;2023-02-28T06:53:54;46.87;;;26.83;;
17482;SDS011;8858;52.308;20.994;2023-02-28T06:56:23;45.90;;;25.50;;
17482;SDS011;8858;52.308;20.994;2023-02-28T06:58:52;42.40;;;24.17;;
17482;SDS011;8858;52.308;20.994;2023-02-28T07:01:22;46.77;;;25.27;;
17482;SDS011;8858;52.308;20.994;2023-02-28T07:03:55;43.00;;;23.93;;
17482;SDS011;8858;52.308;20.994;2023-02-28T07:06:23;48.17;;;24.83;;
17482;SDS011;8858;52.308;20.994;2023-02-28T07:08:52;44.60;;;23.60;;
17482;SDS011;8858;52.308;20.994;2023-02-28T07:11:21;47.47;;;25.33;;
17482;SDS011;8858;52.308;20.994;2023-02-28T07:13:52;45.63;;;24.53;;
17482;SDS011;8858;52.308;20.994;2023-02-28T07:16:25;39.97;;;23.20;;
17482;SDS011;8858;52.308;20.994;2023-02-28T07:18:55;33.93;;;19.53;;
17482;SDS011;8858;52.308;20.994;2023-02-28T07:21:23;35.30;;;20.03;;
17482;SDS011;8858;52.308;20.994;2023-02-28T07:23:53;36.40;;;20.37;;
17482;SDS011;8858;52.308;20.994;2023-02-28T07:26:21;33.23;;;17.97;;
17482;SDS011;8858;52.308;20.994;2023-02-28T07:28:50;27.50;;;16.03;;
17482;SDS011;8858;52.308;20.994;2023-02-28T07:31:20;26.53;;;15.30;;
17482;SDS011;8858;52.308;20.994;2023-02-28T07:33:53;23.70;;;14.23;;
17482;SDS011;8858;52.308;20.994;2023-02-28T07:36:22;24.57;;;14.67;;
17482;SDS011;8858;52.308;20.994;2023-02-28T07:38:54;22.13;;;12.40;;
17482;SDS011;8858;52.308;20.994;2023-02-28T07:41:23;20.63;;;12.67;;
17482;SDS011;8858;52.308;20.994;2023-02-28T07:43:55;16.50;;;11.63;;
17482;SDS011;8858;52.308;20.994;2023-02-28T07:46:27;14.27;;;10.20;;
17482;SDS011;8858;52.308;20.994;2023-02-28T07:48:57;16.20;;;10.20;;
17482;SDS011;8858;52.308;20.994;2023-02-28T07:51:26;18.30;;;11.00;;
17482;SDS011;8858;52.308;20.994;2023-02-28T07:53:55;19.57;;;10.77;;
17482;SDS011;8858;52.308;20.994;2023-02-28T07:56:23;20.47;;;11.40;;
17482;SDS011;8858;52.308;20.994;2023-02-28T07:58:52;12.97;;;9.00;;
17482;SDS011;8858;52.308;20.994;2023-02-28T08:01:21;11.00;;;8.33;;
17482;SDS011;8858;52.308;20.994;2023-02-28T08:03:52;11.40;;;6.87;;
17482;SDS011;8858;52.308;20.994;2023-02-28T08:06:23;7.17;;;5.50;;
17482;SDS011;8858;52.308;20.994;2023-02-28T08:08:53;10.27;;;7.07;;
17482;SDS011;8858;52.308;20.994;2023-02-28T08:11:22;9.00;;;6.50;;
17482;SDS011;8858;52.308;20.994;2023-02-28T08:13:51;11.97;;;7.70;;
17482;SDS011;8858;52.308;20.994;2023-02-28T08:16:19;12.90;;;7.93;;
17482;SDS011;8858;52.308;20.994;2023-02-28T08:18:49;9.37;;;7.43;;
17482;SDS011;8858;52.308;20.994;2023-02-28T08:21:17;12.10;;;8.63;;
17482;SDS011;8858;52.308;20.994;2023-02-28T08:23:51;10.77;;;8.00;;
17482;SDS011;8858;52.308;20.994;2023-02-28T08:26:20;10.83;;;7.63;;
17482;SDS011;8858;52.308;20.994;2023-02-28T08:28:49;11.37;;;7.93;;
17482;SDS011;8858;52.308;20.994;2023-02-28T08:31:18;9.73;;;7.50;;
17482;SDS011;8858;52.308;20.994;2023-02-28T08:33:48;9.47;;;6.90;;
17482;SDS011;8858;52.308;20.994;2023-02-28T08:36:20;11.70;;;7.57;;
17482;SDS011;8858;52.308;20.994;2023-02-28T08:38:48;12.43;;;7.93;;
17482;SDS011;8858;52.308;20.994;2023-02-28T08:41:19;11.57;;;7.63;;
17482;SDS011;8858;52.308;20.994;2023-02-28T08:43:47;14.33;;;8.00;;
17482;SDS011;8858;52.308;20.994;2023-02-28T08:46:16;14.23;;;8.27;;
17482;SDS011;8858;52.308;20.994;2023-02-28T08:48:50;12.77;;;8.43;;
17482;SDS011;8858;52.308;20.994;2023-02-28T08:51:20;11.73;;;8.23;;
17482;SDS011;8858;52.308;20.994;2023-02-28T08:53:54;10.20;;;7.93;;
17482;SDS011;8858;52.308;20.994;2023-02-28T08:56:27;10.23;;;7.27;;
17482;SDS011;8858;52.308;20.994;2023-02-28T08:58:57;14.30;;;7.40;;
17482;SDS011;8858;52.308;20.994;2023-02-28T09:01:26;9.20;;;7.43;;
17482;SDS011;8858;52.308;20.994;2023-02-28T09:03:59;10.93;;;7.63;;
17482;SDS011;8858;52.308;20.994;2023-02-28T09:06:29;12.77;;;7.80;;
17482;SDS011;8858;52.308;20.994;2023-02-28T09:09:00;9.87;;;7.47;;
17482;SDS011;8858;52.308;20.994;2023-02-28T09:11:35;11.53;;;7.77;;
17482;SDS011;8858;52.308;20.994;2023-02-28T09:14:03;12.93;;;8.57;;
17482;SDS011;8858;52.308;20.994;2023-02-28T09:16:32;10.47;;;7.83;;
17482;SDS011;8858;52.308;20.994;2023-02-28T09:19:02;10.80;;;7.57;;
17482;SDS011;8858;52.308;20.994;2023-02-28T09:21:33;10.87;;;6.63;;
17482;SDS011;8858;52.308;20.994;2023-02-28T09:24:01;9.83;;;7.20;;
17482;SDS011;8858;52.308;20.994;2023-02-28T09:26:31;8.17;;;7.20;;
17482;SDS011;8858;52.308;20.994;2023-02-28T09:29:15;11.57;;;7.67;;
17482;SDS011;8858;52.308;20.994;2023-02-28T09:31:44;9.50;;;7.23;;
17482;SDS011;8858;52.308;20.994;2023-02-28T09:34:16;11.27;;;7.40;;
17482;SDS011;8858;52.308;20.994;2023-02-28T09:36:44;10.67;;;6.70;;
17482;SDS011;8858;52.308;20.994;2023-02-28T09:39:14;9.50;;;7.20;;
17482;SDS011;8858;52.308;20.994;2023-02-28T09:41:44;10.33;;;7.53;;
17482;SDS011;8858;52.308;20.994;2023-02-28T09:44:22;10.57;;;7.43;;
17482;SDS011;8858;52.308;20.994;2023-02-28T09:46:58;8.70;;;7.30;;
17482;SDS011;8858;52.308;20.994;2023-02-28T09:49:34;9.83;;;7.10;;
17482;SDS011;8858;52.308;20.994;2023-02-28T09:52:09;11.17;;;6.57;;
17482;SDS011;8858;52.308;20.994;2023-02-28T09:54:40;9.07;;;7.07;;
17482;SDS011;8858;52.308;20.994;2023-02-28T09:57:13;10.07;;;6.10;;
17482;SDS011;8858;52.308;20.994;2023-02-28T09:59:57;9.33;;;6.77;;
17482;SDS011;8858;52.308;20.994;2023-02-28T10:02:53;10.90;;;7.17;;
17482;SDS011;8858;52.308;20.994;2023-02-28T10:05:30;11.27;;;7.70;;
17482;SDS011;8858;52.308;20.994;2023-02-28T10:08:05;10.17;;;7.20;;
17482;SDS011;8858;52.308;20.994;2023-02-28T10:10:43;10.83;;;7.50;;
17482;SDS011;8858;52.308;20.994;2023-02-28T10:13:14;10.83;;;8.57;;
17482;SDS011;8858;52.308;20.994;2023-02-28T10:15:55;9.00;;;7.07;;
17482;SDS011;8858;52.308;20.994;2023-02-28T10:18:27;10.47;;;7.10;;
17482;SDS011;8858;52.308;20.994;2023-02-28T10:21:03;8.63;;;6.30;;
17482;SDS011;8858;52.308;20.994;2023-02-28T10:23:32;11.67;;;7.13;;
17482;SDS011;8858;52.308;20.994;2023-02-28T10:26:09;9.27;;;7.10;;
17482;SDS011;8858;52.308;20.994;2023-02-28T10:28:42;10.10;;;7.17;;
17482;SDS011;8858;52.308;20.994;2023-02-28T10:31:17;12.00;;;8.03;;
17482;SDS011;8858;52.308;20.994;2023-02-28T10:33:47;11.27;;;7.87;;
17482;SDS011;8858;52.308;20.994;2023-02-28T10:36:18;11.27;;;7.63;;
17482;SDS011;8858;52.308;20.994;2023-02-28T10:38:48;12.17;;;8.00;;
17482;SDS011;8858;52.308;20.994;2023-02-28T10:41:26;12.20;;;7.63;;
17482;SDS011;8858;52.308;20.994;2023-02-28T10:44:13;9.03;;;7.23;;
17482;SDS011;8858;52.308;20.994;2023-02-28T10:46:48;13.43;;;9.70;;
17482;SDS011;8858;52.308;20.994;2023-02-28T10:49:17;13.57;;;7.90;;
17482;SDS011;8858;52.308;20.994;2023-02-28T10:51:51;14.77;;;8.40;;
17482;SDS011;8858;52.308;20.994;2023-02-28T10:54:24;12.00;;;8.93;;
17482;SDS011;8858;52.308;20.994;2023-02-28T10:57:07;12.80;;;7.50;;
17482;SDS011;8858;52.308;20.994;2023-02-28T10:59:44;10.87;;;8.40;;
17482;SDS011;8858;52.308;20.994;2023-02-28T11:02:30;9.20;;;7.80;;
17482;SDS011;8858;52.308;20.994;2023-02-28T11:05:02;10.13;;;8.20;;
17482;SDS011;8858;52.308;20.994;2023-02-28T11:07:51;15.23;;;7.67;;
17482;SDS011;8858;52.308;20.994;2023-02-28T11:10:21;10.37;;;7.83;;
17482;SDS011;8858;52.308;20.994;2023-02-28T11:12:54;12.20;;;7.50;;
17482;SDS011;8858;52.308;20.994;2023-02-28T11:15:51;9.17;;;7.40;;
17482;SDS011;8858;52.308;20.994;2023-02-28T11:18:29;9.40;;;7.47;;
17482;SDS011;8858;52.308;20.994;2023-02-28T11:21:00;7.93;;;7.13;;
17482;SDS011;8858;52.308;20.994;2023-02-28T11:23:33;11.83;;;7.70;;
17482;SDS011;8858;52.308;20.994;2023-02-28T11:26:05;10.37;;;7.50;;
17482;SDS011;8858;52.308;20.994;2023-02-28T11:28:36;8.67;;;7.27;;
17482;SDS011;8858;52.308;20.994;2023-02-28T11:33:57;8.60;;;7.10;;
17482;SDS011;8858;52.308;20.994;2023-02-28T11:36:27;9.07;;;7.70;;
17482;SDS011;8858;52.308;20.994;2023-02-28T11:38:58;10.47;;;7.90;;
17482;SDS011;8858;52.308;20.994;2023-02-28T11:41:51;8.70;;;7.10;;
17482;SDS011;8858;52.308;20.994;2023-02-28T11:44:33;10.20;;;7.50;;
17482;SDS011;8858;52.308;20.994;2023-02-28T11:47:13;9.90;;;7.63;;
17482;SDS011;8858;52.308;20.994;2023-02-28T11:49:50;9.23;;;7.50;;
17482;SDS011;8858;52.308;20.994;2023-02-28T11:52:31;9.70;;;7.10;;
17482;SDS011;8858;52.308;20.994;2023-02-28T11:55:09;11.20;;;7.13;;
17482;SDS011;8858;52.308;20.994;2023-02-28T11:57:53;14.57;;;8.00;;
17482;SDS011;8858;52.308;20.994;2023-02-28T12:00:32;11.03;;;7.50;;
17482;SDS011;8858;52.308;20.994;2023-02-28T12:03:16;13.77;;;8.03;;
17482;SDS011;8858;52.308;20.994;2023-02-28T12:05:58;12.40;;;7.90;;
17482;SDS011;8858;52.308;20.994;2023-02-28T12:08:42;11.10;;;7.10;;
17482;SDS011;8858;52.308;20.994;2023-02-28T12:11:17;10.10;;;7.63;;
17482;SDS011;8858;52.308;20.994;2023-02-28T12:13:59;9.13;;;7.67;;
17482;SDS011;8858;52.308;20.994;2023-02-28T12:16:57;10.80;;;7.57;;
17482;SDS011;8858;52.308;20.994;2023-02-28T12:19:34;13.50;;;8.10;;
17482;SDS011;8858;52.308;20.994;2023-02-28T12:22:21;12.30;;;8.13;;
17482;SDS011;8858;52.308;20.994;2023-02-28T12:27:52;11.13;;;7.87;;
17482;SDS011;8858;52.308;20.994;2023-02-28T12:30:22;10.43;;;8.03;;
17482;SDS011;8858;52.308;20.994;2023-02-28T12:32:53;13.60;;;8.53;;
17482;SDS011;8858;52.308;20.994;2023-02-28T12:35:28;10.47;;;7.33;;
17482;SDS011;8858;52.308;20.994;2023-02-28T12:38:05;10.67;;;7.90;;
17482;SDS011;8858;52.308;20.994;2023-02-28T12:40:44;13.47;;;7.40;;
17482;SDS011;8858;52.308;20.994;2023-02-28T12:43:17;9.93;;;6.97;;
17482;SDS011;8858;52.308;20.994;2023-02-28T12:45:50;10.33;;;8.57;;
17482;SDS011;8858;52.308;20.994;2023-02-28T12:48:25;12.37;;;8.27;;
17482;SDS011;8858;52.308;20.994;2023-02-28T12:50:59;10.13;;;8.20;;
17482;SDS011;8858;52.308;20.994;2023-02-28T12:53:35;10.33;;;7.80;;
17482;SDS011;8858;52.308;20.994;2023-02-28T12:56:15;12.57;;;9.00;;
17482;SDS011;8858;52.308;20.994;2023-02-28T12:58:49;16.43;;;9.37;;
17482;SDS011;8858;52.308;20.994;2023-02-28T13:01:29;15.67;;;9.10;;
17482;SDS011;8858;52.308;20.994;2023-02-28T13:04:27;11.73;;;8.80;;
17482;SDS011;8858;52.308;20.994;2023-02-28T13:07:23;15.07;;;9.00;;
17482;SDS011;8858;52.308;20.994;2023-02-28T13:10:15;13.90;;;8.83;;
17482;SDS011;8858;52.308;20.994;2023-02-28T13:12:48;11.63;;;8.83;;
17482;SDS011;8858;52.308;20.994;2023-02-28T13:15:19;11.63;;;8.17;;
17482;SDS011;8858;52.308;20.994;2023-02-28T13:17:51;14.80;;;8.40;;
17482;SDS011;8858;52.308;20.994;2023-02-28T13:20:23;12.50;;;8.47;;
17482;SDS011;8858;52.308;20.994;2023-02-28T13:22:54;15.97;;;8.50;;
17482;SDS011;8858;52.308;20.994;2023-02-28T13:34:46;10.53;;;7.67;;
17482;SDS011;8858;52.308;20.994;2023-02-28T13:37:35;10.60;;;7.87;;
17482;SDS011;8858;52.308;20.994;2023-02-28T13:40:26;11.03;;;8.03;;
17482;SDS011;8858;52.308;20.994;2023-02-28T13:43:08;12.43;;;8.20;;
17482;SDS011;8858;52.308;20.994;2023-02-28T13:45:37;10.33;;;7.57;;
17482;SDS011;8858;52.308;20.994;2023-02-28T13:48:17;11.17;;;7.43;;
17482;SDS011;8858;52.308;20.994;2023-02-28T13:50:46;11.07;;;7.63;;
17482;SDS011;8858;52.308;20.994;2023-02-28T13:53:27;10.50;;;7.23;;
17482;SDS011;8858;52.308;20.994;2023-02-28T13:56:21;11.40;;;7.40;;
17482;SDS011;8858;52.308;20.994;2023-02-28T13:59:06;10.50;;;7.00;;
17482;SDS011;8858;52.308;20.994;2023-02-28T14:01:48;11.20;;;7.07;;
17482;SDS011;8858;52.308;20.994;2023-02-28T14:04:43;8.70;;;7.20;;
17482;SDS011;8858;52.308;20.994;2023-02-28T14:07:18;11.00;;;6.97;;
17482;SDS011;8858;52.308;20.994;2023-02-28T14:09:53;9.13;;;6.90;;
17482;SDS011;8858;52.308;20.994;2023-02-28T14:15:43;9.73;;;7.23;;
17482;SDS011;8858;52.308;20.994;2023-02-28T14:18:20;10.83;;;6.83;;
17482;SDS011;8858;52.308;20.994;2023-02-28T14:20:54;8.73;;;6.50;;
17482;SDS011;8858;52.308;20.994;2023-02-28T14:26:19;10.97;;;6.97;;
17482;SDS011;8858;52.308;20.994;2023-02-28T14:29:05;10.30;;;6.80;;
17482;SDS011;8858;52.308;20.994;2023-02-28T14:31:57;9.90;;;6.70;;
17482;SDS011;8858;52.308;20.994;2023-02-28T14:34:35;8.93;;;7.27;;
17482;SDS011;8858;52.308;20.994;2023-02-28T14:37:10;8.70;;;6.67;;
17482;SDS011;8858;52.308;20.994;2023-02-28T14:39:42;10.53;;;6.57;;
17482;SDS011;8858;52.308;20.994;2023-02-28T14:42:28;9.77;;;6.93;;
17482;SDS011;8858;52.308;20.994;2023-02-28T14:45:01;11.60;;;7.30;;
17482;SDS011;8858;52.308;20.994;2023-02-28T14:47:31;9.40;;;6.80;;
17482;SDS011;8858;52.308;20.994;2023-02-28T14:50:02;11.20;;;6.77;;
17482;SDS011;8858;52.308;20.994;2023-02-28T14:52:34;9.63;;;7.50;;
17482;SDS011;8858;52.308;20.994;2023-02-28T14:55:03;9.73;;;6.87;;
17482;SDS011;8858;52.308;20.994;2023-02-28T14:57:49;11.70;;;6.73;;
17482;SDS011;8858;52.308;20.994;2023-02-28T15:00:21;8.47;;;6.43;;
17482;SDS011;8858;52.308;20.994;2023-02-28T15:02:53;9.10;;;6.77;;
17482;SDS011;8858;52.308;20.994;2023-02-28T15:05:26;10.43;;;6.77;;
17482;SDS011;8858;52.308;20.994;2023-02-28T15:08:03;8.17;;;6.10;;
17482;SDS011;8858;52.308;20.994;2023-02-28T15:10:33;14.93;;;6.83;;
17482;SDS011;8858;52.308;20.994;2023-02-28T15:13:05;15.93;;;7.00;;
17482;SDS011;8858;52.308;20.994;2023-02-28T15:15:43;16.70;;;6.83;;
17482;SDS011;8858;52.308;20.994;2023-02-28T15:18:31;14.67;;;6.63;;
17482;SDS011;8858;52.308;20.994;2023-02-28T15:21:11;18.13;;;7.17;;
17482;SDS011;8858;52.308;20.994;2023-02-28T15:23:44;19.00;;;7.27;;
17482;SDS011;8858;52.308;20.994;2023-02-28T15:26:21;21.97;;;7.83;;
17482;SDS011;8858;52.308;20.994;2023-02-28T15:28:57;11.23;;;7.20;;
17482;SDS011;8858;52.308;20.994;2023-02-28T15:31:28;11.50;;;7.00;;
17482;SDS011;8858;52.308;20.994;2023-02-28T15:34:25;8.77;;;6.77;;